Pagrindinis puslapis
METAR-TAF:

METAR-TAF

Oro uostai :

Singapūras, Singapūras

platuma: 01-22N, ilguma: 103-55E, Aukštis: 18 m

Dabartinis oras

Ataskaita buvo paskelbta 14 minutes, ne 21:00 UTC
Vėjas 1 kt iš Šiaurės/Šiaurės Vakarų
Temperatūra 28°C
Drėgmė 79%
Slėgis 1008 hPa
Matomumas 10 km arba daugiau
Mažai debesys ne aukštis 1800 ft
Su prošvaistėmis ne aukštis 30000 ft

METAR: WSAP 222100Z 33001KT 9999 FEW018 BKN300 28/24 Q1008

Laikas: 05:14 (21:14 UTC)

Prognozė

Ataskaita buvo paskelbta 4 valandos ir 14 minutes, ne 17:00 UTC
Prognozė galioja nuo 22 metu 18 UTC su 24 metu 00 UTC
Vėjas 7 kt iš Vakarų
Matomumas 10 km arba daugiau
Mažai debesys ne aukštis 1500 ft
Išsisklaidę debesys ne aukštis 2000 ft
Laikinai
nuo 23 metu 06 UTC su 23 metu 09 UTC
Matomumas: 3000 m
Mažai debesys ne aukštis 1200 ft, Liūtiniai kamuoliniai debesys.
Su prošvaistėmis ne aukštis 1500 ft
perkūnija, lietus

TAF: WSAP 221700Z 2218/2400 28007KT 9999 FEW015 SCT020 TEMPO 2306/2309 3000 TSRA FEW012CB BKN015

Orai ataskaitas ir orų prognozės (METAR, TAF).

turimą stotys yra geltonos ir raudonos taškus žemėlapyje.

Perkelti pele per norėdami pamatyti stoties vardą.

Tada spustelėkite, norėdami matyti oro stebėjimo ir prognozės.

Norėdami pakeisti žemėlapį: spustelėkite ant žalios mygtukų su juodo kryžiaus žemyn,; žalią mygtuką su brūkšneliu, jei norite nutolinti; arba žalių rodyklių gretimoms žemėlapius.


METAR-TAF: